Terminal Aerodrome Forecast
Issued by NWS

Home | Current Version | Previous Version | Text Only | Print | Product List | Glossary On
Versions: 1 2 3 4 5 6 7 8 9 10 11 12 13 14 15 16 17 18 19 20 21 22 23 24 25 26 27
000
FTUS43 KDVN 221736
TAFCID
TAF
KCID 221736Z 2218/2318 28004KT P6SM VCTS SCT017 BKN035CB
     FM230100 VRB03KT P6SM SCT035 BKN150
     FM230600 VRB03KT 4SM BR VCTS BKN040CB OVC150
     FM230900 08003KT 2SM -RA BR VCTS SCT018 OVC040CB
     FM231400 10005KT 4SM BR VCTS SCT040CB OVC150=

USA.gov is the U.S. government's official web portal to all federal, state and local government web resources and services.